PWSweather.com
Personal Weather Stations
Station Observations
KNCCHINA3
Red Tractor Trail, China Grove, NC 28023

Red Tractor TrailChina Grove, NC 28023

Lat: 35.59751, Lon: -80.60201

Elevation: 800

Station Type: Oregon Scientific WMR 968

http://www.joesweathergarage.com

High Low Average
Temperature 91.4°F33.0°C 46.6°F8.1°C 67.2°F19.6°C
Dew Point 55.3°F12.9°C 44.8°F7.1°C 49.2°F9.6°C
Winds 6.9 mph 11.1 kmh Calm Calm 1.0 mph E1.6 kmh E
Wind Gusts 8.6 mph13.8 kmh -- 3.0 mph4.8 kmh
Humidity 100% 23% 60%
Pressure 30.42 in1030.1 mb 30.27 in1025.1 mb -
Precipitation 0.00 in0.0 mm - -
Hour Temp Dew Point Humidity Winds Wind Gusts Pressure Precip Precip Rate Daily Precip Total
12:01 AM 53.8°F12.1°C 46.1°F7.8°C 75% Calm Calm -- 30.30 in1026.1 mb 0.00 in0.0 mm 0.00 in0.0 mm 0.00 in0.0 mm
12:07 AM 53.4°F11.9°C 46.4°F8.0°C 77% Calm Calm -- 30.27 in1025.1 mb 0.00 in0.0 mm 0.00 in0.0 mm 0.00 in0.0 mm
12:12 AM 53.2°F11.8°C 46.2°F7.9°C 77% Calm Calm -- 30.27 in1025.1 mb 0.00 in0.0 mm 0.00 in0.0 mm 0.00 in0.0 mm
12:17 AM 53.1°F11.7°C 46.5°F8.1°C 78% Calm Calm -- 30.27 in1025.1 mb 0.00 in0.0 mm 0.00 in0.0 mm 0.00 in0.0 mm
12:22 AM 52.9°F11.6°C 46.3°F7.9°C 78% Calm Calm -- 30.27 in1025.1 mb 0.00 in0.0 mm 0.00 in0.0 mm 0.00 in0.0 mm
12:27 AM 52.9°F11.6°C 47.4°F8.6°C 81% Calm Calm -- 30.27 in1025.1 mb 0.00 in0.0 mm 0.00 in0.0 mm 0.00 in0.0 mm
12:32 AM 52.7°F11.5°C 47.2°F8.4°C 81% Calm Calm -- 30.27 in1025.1 mb 0.00 in0.0 mm 0.00 in0.0 mm 0.00 in0.0 mm
12:37 AM 52.5°F11.4°C 47.3°F8.5°C 83% Calm Calm -- 30.30 in1026.1 mb 0.00 in0.0 mm 0.00 in0.0 mm 0.00 in0.0 mm
12:42 AM 52.3°F11.3°C 47.1°F8.4°C 83% Calm Calm -- 30.30 in1026.1 mb 0.00 in0.0 mm 0.00 in0.0 mm 0.00 in0.0 mm
12:47 AM 52.3°F11.3°C 47.1°F8.4°C 83% Calm Calm -- 30.30 in1026.1 mb 0.00 in0.0 mm 0.00 in0.0 mm 0.00 in0.0 mm
12:52 AM 52.3°F11.3°C 47.5°F8.6°C 84% Calm Calm -- 30.30 in1026.1 mb 0.00 in0.0 mm 0.00 in0.0 mm 0.00 in0.0 mm
12:57 AM 52.2°F11.2°C 47.7°F8.7°C 85% Calm Calm -- 30.30 in1026.1 mb 0.00 in0.0 mm 0.00 in0.0 mm 0.00 in0.0 mm
01:02 AM 52.2°F11.2°C 47.4°F8.6°C 84% Calm Calm -- 30.30 in1026.1 mb 0.00 in0.0 mm 0.00 in0.0 mm 0.00 in0.0 mm
01:08 AM 52.0°F11.1°C 47.2°F8.4°C 84% Calm Calm -- 30.30 in1026.1 mb 0.00 in0.0 mm 0.00 in0.0 mm 0.00 in0.0 mm
01:13 AM 51.8°F11.0°C 47.0°F8.3°C 84% Calm Calm -- 30.30 in1026.1 mb 0.00 in0.0 mm 0.00 in0.0 mm 0.00 in0.0 mm
01:18 AM 51.6°F10.9°C 47.1°F8.4°C 85% Calm Calm -- 30.30 in1026.1 mb 0.00 in0.0 mm 0.00 in0.0 mm 0.00 in0.0 mm
01:23 AM 51.4°F10.8°C 46.9°F8.3°C 85% Calm Calm -- 30.27 in1025.1 mb 0.00 in0.0 mm 0.00 in0.0 mm 0.00 in0.0 mm
01:28 AM 51.3°F10.7°C 46.8°F8.2°C 85% Calm Calm -- 30.27 in1025.1 mb 0.00 in0.0 mm 0.00 in0.0 mm 0.00 in0.0 mm
01:33 AM 51.4°F10.8°C 47.6°F8.7°C 87% Calm Calm -- 30.27 in1025.1 mb 0.00 in0.0 mm 0.00 in0.0 mm 0.00 in0.0 mm
01:38 AM 51.3°F10.7°C 47.2°F8.4°C 86% Calm Calm -- 30.27 in1025.1 mb 0.00 in0.0 mm 0.00 in0.0 mm 0.00 in0.0 mm
01:43 AM 51.1°F10.6°C 47.0°F8.3°C 86% Calm Calm -- 30.27 in1025.1 mb 0.00 in0.0 mm 0.00 in0.0 mm 0.00 in0.0 mm
01:48 AM 51.1°F10.6°C 47.6°F8.7°C 88% Calm Calm -- 30.27 in1025.1 mb 0.00 in0.0 mm 0.00 in0.0 mm 0.00 in0.0 mm
01:53 AM 50.9°F10.5°C 47.1°F8.4°C 87% Calm Calm -- 30.30 in1026.1 mb 0.00 in0.0 mm 0.00 in0.0 mm 0.00 in0.0 mm
01:58 AM 50.7°F10.4°C 46.9°F8.3°C 87% Calm Calm -- 30.30 in1026.1 mb 0.00 in0.0 mm 0.00 in0.0 mm 0.00 in0.0 mm
02:03 AM 50.7°F10.4°C 47.9°F8.8°C 90% Calm Calm -- 30.30 in1026.1 mb 0.00 in0.0 mm 0.00 in0.0 mm 0.00 in0.0 mm
02:08 AM 50.5°F10.3°C 47.7°F8.7°C 90% Calm Calm -- 30.30 in1026.1 mb 0.00 in0.0 mm 0.00 in0.0 mm 0.00 in0.0 mm
02:13 AM 50.5°F10.3°C 47.4°F8.6°C 89% Calm Calm -- 30.30 in1026.1 mb 0.00 in0.0 mm 0.00 in0.0 mm 0.00 in0.0 mm
02:18 AM 50.4°F10.2°C 47.6°F8.7°C 90% Calm Calm -- 30.30 in1026.1 mb 0.00 in0.0 mm 0.00 in0.0 mm 0.00 in0.0 mm
02:23 AM 50.4°F10.2°C 47.6°F8.7°C 90% Calm Calm -- 30.27 in1025.1 mb 0.00 in0.0 mm 0.00 in0.0 mm 0.00 in0.0 mm
02:28 AM 50.2°F10.1°C 47.1°F8.4°C 89% Calm Calm -- 30.27 in1025.1 mb 0.00 in0.0 mm 0.00 in0.0 mm 0.00 in0.0 mm
02:33 AM 50.0°F10.0°C 46.9°F8.3°C 89% Calm Calm -- 30.27 in1025.1 mb 0.00 in0.0 mm 0.00 in0.0 mm 0.00 in0.0 mm
02:38 AM 49.8°F9.9°C 47.0°F8.3°C 90% Calm Calm -- 30.30 in1026.1 mb 0.00 in0.0 mm 0.00 in0.0 mm 0.00 in0.0 mm
02:43 AM 50.0°F10.0°C 47.2°F8.4°C 90% Calm Calm -- 30.30 in1026.1 mb 0.00 in0.0 mm 0.00 in0.0 mm 0.00 in0.0 mm
02:48 AM 50.0°F10.0°C 47.5°F8.6°C 91% Calm Calm -- 30.30 in1026.1 mb 0.00 in0.0 mm 0.00 in0.0 mm 0.00 in0.0 mm
02:53 AM 50.0°F10.0°C 47.8°F8.8°C 92% Calm Calm -- 30.30 in1026.1 mb 0.00 in0.0 mm 0.00 in0.0 mm 0.00 in0.0 mm
02:59 AM 49.8°F9.9°C 47.6°F8.7°C 92% Calm Calm -- 30.30 in1026.1 mb 0.00 in0.0 mm 0.00 in0.0 mm 0.00 in0.0 mm
03:04 AM 49.8°F9.9°C 47.6°F8.7°C 92% Calm Calm -- 30.30 in1026.1 mb 0.00 in0.0 mm 0.00 in0.0 mm 0.00 in0.0 mm
03:09 AM 49.6°F9.8°C 47.4°F8.6°C 92% Calm Calm -- 30.30 in1026.1 mb 0.00 in0.0 mm 0.00 in0.0 mm 0.00 in0.0 mm
03:14 AM 49.5°F9.7°C 47.3°F8.5°C 92% Calm Calm -- 30.30 in1026.1 mb 0.00 in0.0 mm 0.00 in0.0 mm 0.00 in0.0 mm
03:20 AM 49.3°F9.6°C 46.8°F8.2°C 91% Calm Calm -- 30.30 in1026.1 mb 0.00 in0.0 mm 0.00 in0.0 mm 0.00 in0.0 mm
03:25 AM 49.1°F9.5°C 46.6°F8.1°C 91% Calm Calm -- 30.30 in1026.1 mb 0.00 in0.0 mm 0.00 in0.0 mm 0.00 in0.0 mm
03:30 AM 48.9°F9.4°C 46.4°F8.0°C 91% Calm Calm -- 30.30 in1026.1 mb 0.00 in0.0 mm 0.00 in0.0 mm 0.00 in0.0 mm
03:35 AM 48.9°F9.4°C 46.7°F8.2°C 92% Calm Calm -- 30.30 in1026.1 mb 0.00 in0.0 mm 0.00 in0.0 mm 0.00 in0.0 mm
03:41 AM 48.7°F9.3°C 46.6°F8.1°C 92% Calm Calm -- 30.30 in1026.1 mb 0.00 in0.0 mm 0.00 in0.0 mm 0.00 in0.0 mm
03:46 AM 48.7°F9.3°C 46.9°F8.3°C 94% Calm Calm -- 30.30 in1026.1 mb 0.00 in0.0 mm 0.00 in0.0 mm 0.00 in0.0 mm
03:51 AM 48.6°F9.2°C 46.5°F8.1°C 92% Calm Calm -- 30.30 in1026.1 mb 0.00 in0.0 mm 0.00 in0.0 mm 0.00 in0.0 mm
03:56 AM 48.6°F9.2°C 46.8°F8.2°C 94% Calm Calm -- 30.30 in1026.1 mb 0.00 in0.0 mm 0.00 in0.0 mm 0.00 in0.0 mm
04:01 AM 48.6°F9.2°C 46.8°F8.2°C 94% Calm Calm -- 30.30 in1026.1 mb 0.00 in0.0 mm 0.00 in0.0 mm 0.00 in0.0 mm
04:06 AM 48.4°F9.1°C 46.6°F8.1°C 94% Calm Calm -- 30.33 in1027.1 mb 0.00 in0.0 mm 0.00 in0.0 mm 0.00 in0.0 mm
04:11 AM 48.6°F9.2°C 47.1°F8.4°C 95% Calm Calm -- 30.33 in1027.1 mb 0.00 in0.0 mm 0.00 in0.0 mm 0.00 in0.0 mm
04:16 AM 48.7°F9.3°C 47.5°F8.6°C 96% Calm Calm -- 30.33 in1027.1 mb 0.00 in0.0 mm 0.00 in0.0 mm 0.00 in0.0 mm
04:22 AM 48.7°F9.3°C 47.8°F8.8°C 97% Calm Calm -- 30.33 in1027.1 mb 0.00 in0.0 mm 0.00 in0.0 mm 0.00 in0.0 mm
04:27 AM 48.7°F9.3°C 47.2°F8.4°C 95% Calm Calm -- 30.33 in1027.1 mb 0.00 in0.0 mm 0.00 in0.0 mm 0.00 in0.0 mm
04:32 AM 48.6°F9.2°C 47.1°F8.4°C 95% Calm Calm -- 30.33 in1027.1 mb 0.00 in0.0 mm 0.00 in0.0 mm 0.00 in0.0 mm
04:37 AM 48.4°F9.1°C 46.9°F8.3°C 95% Calm Calm -- 30.33 in1027.1 mb 0.00 in0.0 mm 0.00 in0.0 mm 0.00 in0.0 mm
04:42 AM 48.0°F8.9°C 46.8°F8.2°C 96% Calm Calm -- 30.33 in1027.1 mb 0.00 in0.0 mm 0.00 in0.0 mm 0.00 in0.0 mm
04:47 AM 48.0°F8.9°C 46.8°F8.2°C 96% Calm Calm -- 30.33 in1027.1 mb 0.00 in0.0 mm 0.00 in0.0 mm 0.00 in0.0 mm
04:53 AM 47.8°F8.8°C 46.6°F8.1°C 96% Calm Calm -- 30.36 in1028.1 mb 0.00 in0.0 mm 0.00 in0.0 mm 0.00 in0.0 mm
04:58 AM 47.7°F8.7°C 46.8°F8.2°C 97% Calm Calm -- 30.36 in1028.1 mb 0.00 in0.0 mm 0.00 in0.0 mm 0.00 in0.0 mm
05:05 AM 47.7°F8.7°C 46.8°F8.2°C 97% Calm Calm -- 30.36 in1028.1 mb 0.00 in0.0 mm 0.00 in0.0 mm 0.00 in0.0 mm
05:10 AM 47.7°F8.7°C 46.8°F8.2°C 97% Calm Calm -- 30.36 in1028.1 mb 0.00 in0.0 mm 0.00 in0.0 mm 0.00 in0.0 mm
05:15 AM 47.5°F8.6°C 46.3°F7.9°C 96% Calm Calm -- 30.36 in1028.1 mb 0.00 in0.0 mm 0.00 in0.0 mm 0.00 in0.0 mm
05:20 AM 47.3°F8.5°C 46.1°F7.8°C 96% Calm Calm -- 30.39 in1029.1 mb 0.00 in0.0 mm 0.00 in0.0 mm 0.00 in0.0 mm
05:26 AM 47.3°F8.5°C 46.1°F7.8°C 96% Calm Calm -- 30.39 in1029.1 mb 0.00 in0.0 mm 0.00 in0.0 mm 0.00 in0.0 mm
05:31 AM 47.1°F8.4°C 45.9°F7.7°C 96% Calm Calm -- 30.39 in1029.1 mb 0.00 in0.0 mm 0.00 in0.0 mm 0.00 in0.0 mm
05:37 AM 47.1°F8.4°C 46.2°F7.9°C 97% Calm Calm -- 30.36 in1028.1 mb 0.00 in0.0 mm 0.00 in0.0 mm 0.00 in0.0 mm
05:42 AM 47.1°F8.4°C 46.5°F8.1°C 98% Calm Calm -- 30.36 in1028.1 mb 0.00 in0.0 mm 0.00 in0.0 mm 0.00 in0.0 mm
05:48 AM 46.9°F8.3°C 46.3°F7.9°C 98% Calm Calm -- 30.36 in1028.1 mb 0.00 in0.0 mm 0.00 in0.0 mm 0.00 in0.0 mm
05:53 AM 46.9°F8.3°C 46.0°F7.8°C 97% Calm Calm -- 30.36 in1028.1 mb 0.00 in0.0 mm 0.00 in0.0 mm 0.00 in0.0 mm
05:58 AM 46.8°F8.2°C 45.9°F7.7°C 97% Calm Calm -- 30.36 in1028.1 mb 0.00 in0.0 mm 0.00 in0.0 mm 0.00 in0.0 mm
06:03 AM 46.6°F8.1°C 45.7°F7.6°C 97% Calm Calm -- 30.36 in1028.1 mb 0.00 in0.0 mm 0.00 in0.0 mm 0.00 in0.0 mm
06:09 AM 46.8°F8.2°C 46.5°F8.1°C 99% Calm Calm -- 30.33 in1027.1 mb 0.00 in0.0 mm 0.00 in0.0 mm 0.00 in0.0 mm
06:14 AM 46.6°F8.1°C 46.0°F7.8°C 98% Calm Calm -- 30.33 in1027.1 mb 0.00 in0.0 mm 0.00 in0.0 mm 0.00 in0.0 mm
06:19 AM 46.6°F8.1°C 46.3°F7.9°C 99% Calm Calm -- 30.36 in1028.1 mb 0.00 in0.0 mm 0.00 in0.0 mm 0.00 in0.0 mm
06:24 AM 46.8°F8.2°C 46.8°F8.2°C 100% Calm Calm -- 30.36 in1028.1 mb 0.00 in0.0 mm 0.00 in0.0 mm 0.00 in0.0 mm
06:30 AM 46.8°F8.2°C 46.5°F8.1°C 99% Calm Calm -- 30.36 in1028.1 mb 0.00 in0.0 mm 0.00 in0.0 mm 0.00 in0.0 mm
06:35 AM 46.8°F8.2°C 46.8°F8.2°C 100% Calm Calm -- 30.39 in1029.1 mb 0.00 in0.0 mm 0.00 in0.0 mm 0.00 in0.0 mm
06:41 AM 46.9°F8.3°C 46.9°F8.3°C 100% Calm Calm -- 30.39 in1029.1 mb 0.00 in0.0 mm 0.00 in0.0 mm 0.00 in0.0 mm
06:46 AM 46.9°F8.3°C 46.9°F8.3°C 100% Calm Calm -- 30.39 in1029.1 mb 0.00 in0.0 mm 0.00 in0.0 mm 0.00 in0.0 mm
06:51 AM 47.1°F8.4°C 47.1°F8.4°C 100% Calm Calm -- 30.39 in1029.1 mb 0.00 in0.0 mm 0.00 in0.0 mm 0.00 in0.0 mm
06:56 AM 47.5°F8.6°C 47.5°F8.6°C 100% Calm Calm -- 30.39 in1029.1 mb 0.00 in0.0 mm 0.00 in0.0 mm 0.00 in0.0 mm
07:02 AM 47.8°F8.8°C 47.8°F8.8°C 100% Calm Calm -- 30.39 in1029.1 mb 0.00 in0.0 mm 0.00 in0.0 mm 0.00 in0.0 mm
07:07 AM 48.2°F9.0°C 48.2°F9.0°C 100% Calm Calm -- 30.39 in1029.1 mb 0.00 in0.0 mm 0.00 in0.0 mm 0.00 in0.0 mm
07:13 AM 48.6°F9.2°C 48.6°F9.2°C 100% Calm Calm -- 30.39 in1029.1 mb 0.00 in0.0 mm 0.00 in0.0 mm 0.00 in0.0 mm
07:18 AM 48.7°F9.3°C 48.7°F9.3°C 100% Calm Calm -- 30.39 in1029.1 mb 0.00 in0.0 mm 0.00 in0.0 mm 0.00 in0.0 mm
07:23 AM 49.1°F9.5°C 48.8°F9.3°C 99% Calm Calm -- 30.42 in1030.1 mb 0.00 in0.0 mm 0.00 in0.0 mm 0.00 in0.0 mm
07:28 AM 49.3°F9.6°C 49.3°F9.6°C 100% Calm Calm -- 30.42 in1030.1 mb 0.00 in0.0 mm 0.00 in0.0 mm 0.00 in0.0 mm
07:33 AM 49.8°F9.9°C 49.8°F9.9°C 100% Calm Calm -- 30.42 in1030.1 mb 0.00 in0.0 mm 0.00 in0.0 mm 0.00 in0.0 mm
07:38 AM 50.5°F10.3°C 50.5°F10.3°C 100% Calm Calm -- 30.42 in1030.1 mb 0.00 in0.0 mm 0.00 in0.0 mm 0.00 in0.0 mm
07:43 AM 50.9°F10.5°C 50.9°F10.5°C 100% Calm Calm -- 30.42 in1030.1 mb 0.00 in0.0 mm 0.00 in0.0 mm 0.00 in0.0 mm
07:48 AM 51.4°F10.8°C 51.4°F10.8°C 100% Calm Calm -- 30.42 in1030.1 mb 0.00 in0.0 mm 0.00 in0.0 mm 0.00 in0.0 mm
07:53 AM 52.0°F11.1°C 52.0°F11.1°C 100% Calm Calm -- 30.42 in1030.1 mb 0.00 in0.0 mm 0.00 in0.0 mm 0.00 in0.0 mm
07:58 AM 52.7°F11.5°C 52.7°F11.5°C 100% Calm Calm -- 30.42 in1030.1 mb 0.00 in0.0 mm 0.00 in0.0 mm 0.00 in0.0 mm
08:04 AM 53.2°F11.8°C 53.2°F11.8°C 100% Calm Calm -- 30.42 in1030.1 mb 0.00 in0.0 mm 0.00 in0.0 mm 0.00 in0.0 mm
08:09 AM 54.1°F12.3°C 53.5°F11.9°C 98% Calm Calm -- 30.42 in1030.1 mb 0.00 in0.0 mm 0.00 in0.0 mm 0.00 in0.0 mm
08:14 AM 55.4°F13.0°C 54.2°F12.3°C 96% Calm Calm -- 30.42 in1030.1 mb 0.00 in0.0 mm 0.00 in0.0 mm 0.00 in0.0 mm
08:19 AM 56.5°F13.6°C 54.3°F12.4°C 92% Calm Calm -- 30.42 in1030.1 mb 0.00 in0.0 mm 0.00 in0.0 mm 0.00 in0.0 mm
08:24 AM 57.4°F14.1°C 54.5°F12.5°C 90% 1.8 mph NE2.9 kmh NE 4.4 mph7.1 kmh 30.42 in1030.1 mb 0.00 in0.0 mm 0.00 in0.0 mm 0.00 in0.0 mm
08:29 AM 58.1°F14.5°C 54.5°F12.5°C 88% 2.1 mph NNE3.4 kmh NNE 4.4 mph7.1 kmh 30.42 in1030.1 mb 0.00 in0.0 mm 0.00 in0.0 mm 0.00 in0.0 mm
08:34 AM 58.8°F14.9°C 54.2°F12.3°C 85% 2.2 mph NNE3.5 kmh NNE 4.0 mph6.4 kmh 30.42 in1030.1 mb 0.00 in0.0 mm 0.00 in0.0 mm 0.00 in0.0 mm
08:39 AM 59.4°F15.2°C 53.7°F12.1°C 81% 4.5 mph NNE7.2 kmh NNE 5.8 mph9.3 kmh 30.42 in1030.1 mb 0.00 in0.0 mm 0.00 in0.0 mm 0.00 in0.0 mm
08:45 AM 60.1°F15.6°C 54.1°F12.3°C 80% 3.5 mph NNE5.6 kmh NNE 5.8 mph9.3 kmh 30.42 in1030.1 mb 0.00 in0.0 mm 0.00 in0.0 mm 0.00 in0.0 mm
08:50 AM 60.4°F15.8°C 54.0°F12.2°C 79% 2.8 mph NNE4.5 kmh NNE 5.4 mph8.7 kmh 30.42 in1030.1 mb 0.00 in0.0 mm 0.00 in0.0 mm 0.00 in0.0 mm
08:55 AM 60.8°F16.0°C 54.0°F12.2°C 78% 1.8 mph NNE2.9 kmh NNE 5.4 mph8.7 kmh 30.42 in1030.1 mb 0.00 in0.0 mm 0.00 in0.0 mm 0.00 in0.0 mm
09:00 AM 61.0°F16.1°C 53.8°F12.1°C 77% 1.8 mph NNE2.9 kmh NNE 4.4 mph7.1 kmh 30.42 in1030.1 mb 0.00 in0.0 mm 0.00 in0.0 mm 0.00 in0.0 mm
09:05 AM 61.3°F16.3°C 53.7°F12.1°C 76% 2.9 mph NNE4.7 kmh NNE 4.4 mph7.1 kmh 30.42 in1030.1 mb 0.00 in0.0 mm 0.00 in0.0 mm 0.00 in0.0 mm
09:10 AM 61.9°F16.6°C 53.9°F12.2°C 75% 3.2 mph NNE5.1 kmh NNE 5.0 mph8.0 kmh 30.42 in1030.1 mb 0.00 in0.0 mm 0.00 in0.0 mm 0.00 in0.0 mm
09:16 AM 62.4°F16.9°C 54.0°F12.2°C 74% 3.7 mph NNE6.0 kmh NNE 5.0 mph8.0 kmh 30.42 in1030.1 mb 0.00 in0.0 mm 0.00 in0.0 mm 0.00 in0.0 mm
09:21 AM 63.1°F17.3°C 54.3°F12.4°C 73% Calm Calm 4.4 mph7.1 kmh 30.42 in1030.1 mb 0.00 in0.0 mm 0.00 in0.0 mm 0.00 in0.0 mm
09:26 AM 63.9°F17.7°C 54.6°F12.6°C 72% Calm Calm 4.4 mph7.1 kmh 30.42 in1030.1 mb 0.00 in0.0 mm 0.00 in0.0 mm 0.00 in0.0 mm
09:32 AM 64.6°F18.1°C 54.5°F12.5°C 69% 3.3 mph NNE5.3 kmh NNE 5.4 mph8.7 kmh 30.42 in1030.1 mb 0.00 in0.0 mm 0.00 in0.0 mm 0.00 in0.0 mm
09:37 AM 64.9°F18.3°C 54.3°F12.4°C 68% 1.8 mph NNE2.9 kmh NNE 5.4 mph8.7 kmh 30.42 in1030.1 mb 0.00 in0.0 mm 0.00 in0.0 mm 0.00 in0.0 mm
09:42 AM 65.3°F18.5°C 54.3°F12.4°C 67% 2.2 mph NNE3.5 kmh NNE 3.2 mph5.1 kmh 30.42 in1030.1 mb 0.00 in0.0 mm 0.00 in0.0 mm 0.00 in0.0 mm
09:47 AM 65.8°F18.8°C 54.3°F12.4°C 66% 3.4 mph NNE5.5 kmh NNE 4.4 mph7.1 kmh 30.42 in1030.1 mb 0.00 in0.0 mm 0.00 in0.0 mm 0.00 in0.0 mm
09:52 AM 66.2°F19.0°C 53.7°F12.1°C 64% 3.1 mph NNE5.0 kmh NNE 5.4 mph8.7 kmh 30.42 in1030.1 mb 0.00 in0.0 mm 0.00 in0.0 mm 0.00 in0.0 mm
09:57 AM 66.7°F19.3°C 54.2°F12.3°C 64% 2.9 mph NNE4.7 kmh NNE 5.4 mph8.7 kmh 30.42 in1030.1 mb 0.00 in0.0 mm 0.00 in0.0 mm 0.00 in0.0 mm
10:02 AM 67.3°F19.6°C 53.8°F12.1°C 62% 2.1 mph ENE3.4 kmh ENE 5.0 mph8.0 kmh 30.42 in1030.1 mb 0.00 in0.0 mm 0.00 in0.0 mm 0.00 in0.0 mm
10:07 AM 67.8°F19.9°C 53.8°F12.1°C 61% 2.2 mph NE3.5 kmh NE 4.0 mph6.4 kmh 30.42 in1030.1 mb 0.00 in0.0 mm 0.00 in0.0 mm 0.00 in0.0 mm
10:12 AM 68.4°F20.2°C 53.3°F11.8°C 58% 3.8 mph ESE6.1 kmh ESE 5.4 mph8.7 kmh 30.42 in1030.1 mb 0.00 in0.0 mm 0.00 in0.0 mm 0.00 in0.0 mm
10:17 AM 68.7°F20.4°C 53.6°F12.0°C 58% Calm Calm 5.4 mph8.7 kmh 30.42 in1030.1 mb 0.00 in0.0 mm 0.00 in0.0 mm 0.00 in0.0 mm
10:22 AM 69.1°F20.6°C 52.9°F11.6°C 56% 2.9 mph E4.7 kmh E 5.4 mph8.7 kmh 30.42 in1030.1 mb 0.00 in0.0 mm 0.00 in0.0 mm 0.00 in0.0 mm
10:27 AM 69.4°F20.8°C 52.1°F11.2°C 54% 3.5 mph ESE5.6 kmh ESE 6.8 mph10.9 kmh 30.42 in1030.1 mb 0.00 in0.0 mm 0.00 in0.0 mm 0.00 in0.0 mm
10:32 AM 70.0°F21.1°C 52.7°F11.5°C 54% 2.4 mph SE3.9 kmh SE 6.8 mph10.9 kmh 30.42 in1030.1 mb 0.00 in0.0 mm 0.00 in0.0 mm 0.00 in0.0 mm
10:39 AM 70.5°F21.4°C 52.0°F11.1°C 52% 4.0 mph E6.4 kmh E 6.8 mph10.9 kmh 30.42 in1030.1 mb 0.00 in0.0 mm 0.00 in0.0 mm 0.00 in0.0 mm
10:44 AM 71.1°F21.7°C 52.5°F11.4°C 52% 3.1 mph ESE5.0 kmh ESE 6.8 mph10.9 kmh 30.42 in1030.1 mb 0.00 in0.0 mm 0.00 in0.0 mm 0.00 in0.0 mm
10:49 AM 72.1°F22.3°C 52.2°F11.2°C 50% 2.0 mph SE3.2 kmh SE 6.8 mph10.9 kmh 30.42 in1030.1 mb 0.00 in0.0 mm 0.00 in0.0 mm 0.00 in0.0 mm
10:54 AM 73.0°F22.8°C 53.1°F11.7°C 50% 3.6 mph ENE5.8 kmh ENE 5.8 mph9.3 kmh 30.42 in1030.1 mb 0.00 in0.0 mm 0.00 in0.0 mm 0.00 in0.0 mm
10:59 AM 73.9°F23.3°C 52.6°F11.4°C 47% 2.9 mph ENE4.7 kmh ENE 6.2 mph10.0 kmh 30.42 in1030.1 mb 0.00 in0.0 mm 0.00 in0.0 mm 0.00 in0.0 mm
11:04 AM 75.2°F24.0°C 53.1°F11.7°C 46% 4.6 mph E7.4 kmh E 6.2 mph10.0 kmh 30.42 in1030.1 mb 0.00 in0.0 mm 0.00 in0.0 mm 0.00 in0.0 mm
11:09 AM 76.8°F24.9°C 54.6°F12.6°C 46% 2.6 mph E4.2 kmh E 6.2 mph10.0 kmh 30.42 in1030.1 mb 0.00 in0.0 mm 0.00 in0.0 mm 0.00 in0.0 mm
11:14 AM 78.1°F25.6°C 54.4°F12.4°C 44% 3.7 mph E6.0 kmh E 6.2 mph10.0 kmh 30.42 in1030.1 mb 0.00 in0.0 mm 0.00 in0.0 mm 0.00 in0.0 mm
11:19 AM 79.2°F26.2°C 54.7°F12.6°C 43% 4.5 mph ENE7.2 kmh ENE 6.2 mph10.0 kmh 30.42 in1030.1 mb 0.00 in0.0 mm 0.00 in0.0 mm 0.00 in0.0 mm
11:24 AM 79.5°F26.4°C 53.5°F11.9°C 41% 6.9 mph SE11.1 kmh SE 8.0 mph12.9 kmh 30.42 in1030.1 mb 0.00 in0.0 mm 0.00 in0.0 mm 0.00 in0.0 mm
11:29 AM 80.1°F26.7°C 54.0°F12.2°C 41% 4.6 mph NE7.4 kmh NE 8.0 mph12.9 kmh 30.42 in1030.1 mb 0.00 in0.0 mm 0.00 in0.0 mm 0.00 in0.0 mm
11:34 AM 80.4°F26.9°C 53.5°F11.9°C 40% 4.1 mph ENE6.6 kmh ENE 7.2 mph11.6 kmh 30.42 in1030.1 mb 0.00 in0.0 mm 0.00 in0.0 mm 0.00 in0.0 mm
11:39 AM 81.9°F27.7°C 54.1°F12.3°C 39% 2.6 mph ENE4.2 kmh ENE 7.2 mph11.6 kmh 30.42 in1030.1 mb 0.00 in0.0 mm 0.00 in0.0 mm 0.00 in0.0 mm
11:44 AM 83.1°F28.4°C 55.1°F12.8°C 39% 2.8 mph SSE4.5 kmh SSE 5.0 mph8.0 kmh 30.42 in1030.1 mb 0.00 in0.0 mm 0.00 in0.0 mm 0.00 in0.0 mm
11:49 AM 83.8°F28.8°C 55.0°F12.8°C 37% 3.5 mph ENE5.6 kmh ENE 5.8 mph9.3 kmh 30.42 in1030.1 mb 0.00 in0.0 mm 0.00 in0.0 mm 0.00 in0.0 mm
11:54 AM 85.1°F29.5°C 55.3°F12.9°C 36% 3.8 mph ESE6.1 kmh ESE 5.8 mph9.3 kmh 30.42 in1030.1 mb 0.00 in0.0 mm 0.00 in0.0 mm 0.00 in0.0 mm
11:59 AM 85.1°F29.5°C 54.4°F12.4°C 35% 3.3 mph SE5.3 kmh SE 6.8 mph10.9 kmh 30.42 in1030.1 mb 0.00 in0.0 mm 0.00 in0.0 mm 0.00 in0.0 mm
12:04 PM 84.9°F29.4°C 53.4°F11.9°C 34% 4.3 mph E6.9 kmh E 6.8 mph10.9 kmh 30.42 in1030.1 mb 0.00 in0.0 mm 0.00 in0.0 mm 0.00 in0.0 mm
12:09 PM 85.8°F29.9°C 54.2°F12.3°C 34% 4.5 mph E7.2 kmh E 8.0 mph12.9 kmh 30.42 in1030.1 mb 0.00 in0.0 mm 0.00 in0.0 mm 0.00 in0.0 mm
12:14 PM 86.2°F30.1°C 53.6°F12.0°C 33% 1.8 mph NE2.9 kmh NE 8.0 mph12.9 kmh 30.42 in1030.1 mb 0.00 in0.0 mm 0.00 in0.0 mm 0.00 in0.0 mm
12:19 PM 86.7°F30.4°C 54.0°F12.2°C 33% 5.2 mph E8.4 kmh E 6.8 mph10.9 kmh 30.39 in1029.1 mb 0.00 in0.0 mm 0.00 in0.0 mm 0.00 in0.0 mm
12:24 PM 87.1°F30.6°C 54.4°F12.4°C 33% 3.5 mph ENE5.6 kmh ENE 6.8 mph10.9 kmh 30.39 in1029.1 mb 0.00 in0.0 mm 0.00 in0.0 mm 0.00 in0.0 mm
12:30 PM 87.1°F30.6°C 54.4°F12.4°C 33% 5.1 mph S8.2 kmh S 6.8 mph10.9 kmh 30.39 in1029.1 mb 0.00 in0.0 mm 0.00 in0.0 mm 0.00 in0.0 mm
12:35 PM 86.9°F30.5°C 53.3°F11.8°C 32% 3.5 mph ENE5.6 kmh ENE 6.8 mph10.9 kmh 30.42 in1030.1 mb 0.00 in0.0 mm 0.00 in0.0 mm 0.00 in0.0 mm
12:40 PM 86.9°F30.5°C 53.3°F11.8°C 32% 2.8 mph SE4.5 kmh SE 6.8 mph10.9 kmh 30.42 in1030.1 mb 0.00 in0.0 mm 0.00 in0.0 mm 0.00 in0.0 mm
12:45 PM 87.8°F31.0°C 54.1°F12.3°C 32% 4.9 mph ESE7.9 kmh ESE 7.2 mph11.6 kmh 30.42 in1030.1 mb 0.00 in0.0 mm 0.00 in0.0 mm 0.00 in0.0 mm
12:50 PM 87.3°F30.7°C 53.6°F12.0°C 32% 3.2 mph SW5.1 kmh SW 7.2 mph11.6 kmh 30.39 in1029.1 mb 0.00 in0.0 mm 0.00 in0.0 mm 0.00 in0.0 mm
12:56 PM 87.6°F30.9°C 53.9°F12.2°C 32% 2.4 mph SSE3.9 kmh SSE 8.6 mph13.8 kmh 30.39 in1029.1 mb 0.00 in0.0 mm 0.00 in0.0 mm 0.00 in0.0 mm
01:01 PM 87.6°F30.9°C 52.9°F11.6°C 31% 4.9 mph SSE7.9 kmh SSE 8.6 mph13.8 kmh 30.39 in1029.1 mb 0.00 in0.0 mm 0.00 in0.0 mm 0.00 in0.0 mm
01:06 PM 88.9°F31.6°C 54.1°F12.3°C 31% 3.1 mph SW5.0 kmh SW 7.2 mph11.6 kmh 30.39 in1029.1 mb 0.00 in0.0 mm 0.00 in0.0 mm 0.00 in0.0 mm
01:11 PM 89.6°F32.0°C 54.7°F12.6°C 31% 4.0 mph SE6.4 kmh SE 5.8 mph9.3 kmh 30.39 in1029.1 mb 0.00 in0.0 mm 0.00 in0.0 mm 0.00 in0.0 mm
01:16 PM 90.1°F32.3°C 53.1°F11.7°C 29% 2.4 mph NW3.9 kmh NW 6.2 mph10.0 kmh 30.39 in1029.1 mb 0.00 in0.0 mm 0.00 in0.0 mm 0.00 in0.0 mm
01:21 PM 89.6°F32.0°C 53.7°F12.1°C 30% 4.1 mph SSE6.6 kmh SSE 6.2 mph10.0 kmh 30.42 in1030.1 mb 0.00 in0.0 mm 0.00 in0.0 mm 0.00 in0.0 mm
01:26 PM 88.9°F31.6°C 53.1°F11.7°C 30% 5.0 mph SE8.0 kmh SE 7.2 mph11.6 kmh 30.42 in1030.1 mb 0.00 in0.0 mm 0.00 in0.0 mm 0.00 in0.0 mm
01:33 PM 89.6°F32.0°C 52.7°F11.5°C 29% 3.4 mph S5.5 kmh S 7.2 mph11.6 kmh 30.42 in1030.1 mb 0.00 in0.0 mm 0.00 in0.0 mm 0.00 in0.0 mm
01:38 PM 89.2°F31.8°C 52.3°F11.3°C 29% 4.7 mph NNE7.6 kmh NNE 5.8 mph9.3 kmh 30.42 in1030.1 mb 0.00 in0.0 mm 0.00 in0.0 mm 0.00 in0.0 mm
01:43 PM 88.9°F31.6°C 52.0°F11.1°C 29% 4.6 mph ENE7.4 kmh ENE 6.2 mph10.0 kmh 30.42 in1030.1 mb 0.00 in0.0 mm 0.00 in0.0 mm 0.00 in0.0 mm
01:48 PM 89.4°F31.9°C 52.5°F11.4°C 29% 4.8 mph SE7.7 kmh SE 6.8 mph10.9 kmh 30.42 in1030.1 mb 0.00 in0.0 mm 0.00 in0.0 mm 0.00 in0.0 mm
01:53 PM 89.1°F31.7°C 52.2°F11.2°C 29% 5.7 mph SE9.2 kmh SE 8.6 mph13.8 kmh 30.42 in1030.1 mb 0.00 in0.0 mm 0.00 in0.0 mm 0.00 in0.0 mm
01:58 PM 89.8°F32.1°C 52.8°F11.6°C 29% 2.2 mph E3.5 kmh E 8.6 mph13.8 kmh 30.42 in1030.1 mb 0.00 in0.0 mm 0.00 in0.0 mm 0.00 in0.0 mm
02:03 PM 91.0°F32.8°C 53.9°F12.2°C 29% 3.4 mph SE5.5 kmh SE 7.2 mph11.6 kmh 30.42 in1030.1 mb 0.00 in0.0 mm 0.00 in0.0 mm 0.00 in0.0 mm
02:08 PM 91.2°F32.9°C 53.0°F11.7°C 28% 4.4 mph E7.1 kmh E 5.8 mph9.3 kmh 30.42 in1030.1 mb 0.00 in0.0 mm 0.00 in0.0 mm 0.00 in0.0 mm
02:13 PM 91.0°F32.8°C 52.8°F11.6°C 28% 3.6 mph E5.8 kmh E 6.2 mph10.0 kmh 30.42 in1030.1 mb 0.00 in0.0 mm 0.00 in0.0 mm 0.00 in0.0 mm
02:18 PM 91.4°F33.0°C 52.0°F11.1°C 26% 2.9 mph NNE4.7 kmh NNE 6.2 mph10.0 kmh 30.42 in1030.1 mb 0.00 in0.0 mm 0.00 in0.0 mm 0.00 in0.0 mm
02:23 PM 91.4°F33.0°C 50.9°F10.5°C 25% 4.6 mph NE7.4 kmh NE 7.2 mph11.6 kmh 30.42 in1030.1 mb 0.00 in0.0 mm 0.00 in0.0 mm 0.00 in0.0 mm
02:28 PM 90.7°F32.6°C 52.5°F11.4°C 28% 2.8 mph SSW4.5 kmh SSW 7.2 mph11.6 kmh 30.42 in1030.1 mb 0.00 in0.0 mm 0.00 in0.0 mm 0.00 in0.0 mm
02:33 PM 90.9°F32.7°C 52.7°F11.5°C 28% 1.8 mph NNE2.9 kmh NNE 5.8 mph9.3 kmh 30.42 in1030.1 mb 0.00 in0.0 mm 0.00 in0.0 mm 0.00 in0.0 mm
02:38 PM 89.6°F32.0°C 50.5°F10.3°C 26% 3.3 mph SW5.3 kmh SW 5.8 mph9.3 kmh 30.42 in1030.1 mb 0.00 in0.0 mm 0.00 in0.0 mm 0.00 in0.0 mm
02:43 PM 90.1°F32.3°C 50.9°F10.5°C 26% 3.5 mph ESE5.6 kmh ESE 5.4 mph8.7 kmh 30.42 in1030.1 mb 0.00 in0.0 mm 0.00 in0.0 mm 0.00 in0.0 mm
02:48 PM 89.8°F32.1°C 49.5°F9.7°C 25% 3.3 mph S5.3 kmh S 5.4 mph8.7 kmh 30.42 in1030.1 mb 0.00 in0.0 mm 0.00 in0.0 mm 0.00 in0.0 mm
02:53 PM 90.7°F32.6°C 51.4°F10.8°C 26% 4.3 mph SE6.9 kmh SE 5.8 mph9.3 kmh 30.39 in1029.1 mb 0.00 in0.0 mm 0.00 in0.0 mm 0.00 in0.0 mm
02:58 PM 90.7°F32.6°C 50.3°F10.2°C 25% 3.8 mph ESE6.1 kmh ESE 6.2 mph10.0 kmh 30.39 in1029.1 mb 0.00 in0.0 mm 0.00 in0.0 mm 0.00 in0.0 mm
03:03 PM 90.7°F32.6°C 49.1°F9.5°C 24% 4.6 mph SE7.4 kmh SE 6.2 mph10.0 kmh 30.39 in1029.1 mb 0.00 in0.0 mm 0.00 in0.0 mm 0.00 in0.0 mm
03:08 PM 90.9°F32.7°C 49.3°F9.6°C 24% 3.0 mph SSE4.8 kmh SSE 6.2 mph10.0 kmh 30.42 in1030.1 mb 0.00 in0.0 mm 0.00 in0.0 mm 0.00 in0.0 mm
03:13 PM 90.1°F32.3°C 47.4°F8.6°C 23% 4.2 mph NE6.8 kmh NE 8.6 mph13.8 kmh 30.42 in1030.1 mb 0.00 in0.0 mm 0.00 in0.0 mm 0.00 in0.0 mm
03:18 PM 88.7°F31.5°C 46.2°F7.9°C 23% 4.1 mph NE6.6 kmh NE 8.6 mph13.8 kmh 30.42 in1030.1 mb 0.00 in0.0 mm 0.00 in0.0 mm 0.00 in0.0 mm
03:24 PM 89.1°F31.7°C 46.6°F8.1°C 23% 3.2 mph E5.1 kmh E 8.0 mph12.9 kmh 30.42 in1030.1 mb 0.00 in0.0 mm 0.00 in0.0 mm 0.00 in0.0 mm
03:29 PM 88.5°F31.4°C 47.3°F8.5°C 24% 3.6 mph WSW5.8 kmh WSW 5.8 mph9.3 kmh 30.42 in1030.1 mb 0.00 in0.0 mm 0.00 in0.0 mm 0.00 in0.0 mm
03:35 PM 88.9°F31.6°C 48.8°F9.3°C 25% 4.2 mph SE6.8 kmh SE 5.8 mph9.3 kmh 30.39 in1029.1 mb 0.00 in0.0 mm 0.00 in0.0 mm 0.00 in0.0 mm
03:40 PM 89.1°F31.7°C 47.8°F8.8°C 24% 2.3 mph E3.7 kmh E 5.0 mph8.0 kmh 30.39 in1029.1 mb 0.00 in0.0 mm 0.00 in0.0 mm 0.00 in0.0 mm
03:45 PM 88.9°F31.6°C 47.6°F8.7°C 24% 3.4 mph S5.5 kmh S 6.2 mph10.0 kmh 30.39 in1029.1 mb 0.00 in0.0 mm 0.00 in0.0 mm 0.00 in0.0 mm
03:50 PM 89.1°F31.7°C 47.8°F8.8°C 24% 2.5 mph E4.0 kmh E 6.2 mph10.0 kmh 30.39 in1029.1 mb 0.00 in0.0 mm 0.00 in0.0 mm 0.00 in0.0 mm
03:56 PM 88.7°F31.5°C 46.2°F7.9°C 23% 3.7 mph ENE6.0 kmh ENE 6.8 mph10.9 kmh 30.39 in1029.1 mb 0.00 in0.0 mm 0.00 in0.0 mm 0.00 in0.0 mm
04:01 PM 88.9°F31.6°C 46.4°F8.0°C 23% 3.9 mph SE6.3 kmh SE 6.8 mph10.9 kmh 30.39 in1029.1 mb 0.00 in0.0 mm 0.00 in0.0 mm 0.00 in0.0 mm
04:07 PM 88.7°F31.5°C 46.2°F7.9°C 23% 1.8 mph NE2.9 kmh NE 5.4 mph8.7 kmh 30.39 in1029.1 mb 0.00 in0.0 mm 0.00 in0.0 mm 0.00 in0.0 mm
04:12 PM 88.3°F31.3°C 48.3°F9.1°C 25% 3.5 mph SE5.6 kmh SE 5.0 mph8.0 kmh 30.39 in1029.1 mb 0.00 in0.0 mm 0.00 in0.0 mm 0.00 in0.0 mm
04:17 PM 88.7°F31.5°C 47.4°F8.6°C 24% 4.3 mph SE6.9 kmh SE 6.2 mph10.0 kmh 30.39 in1029.1 mb 0.00 in0.0 mm 0.00 in0.0 mm 0.00 in0.0 mm
04:22 PM 88.3°F31.3°C 47.1°F8.4°C 24% 3.5 mph SE5.6 kmh SE 6.2 mph10.0 kmh 30.39 in1029.1 mb 0.00 in0.0 mm 0.00 in0.0 mm 0.00 in0.0 mm
04:27 PM 87.6°F30.9°C 46.5°F8.1°C 24% 3.5 mph E5.6 kmh E 6.2 mph10.0 kmh 30.39 in1029.1 mb 0.00 in0.0 mm 0.00 in0.0 mm 0.00 in0.0 mm
04:32 PM 87.4°F30.8°C 46.3°F7.9°C 24% 3.2 mph ENE5.1 kmh ENE 6.2 mph10.0 kmh 30.39 in1029.1 mb 0.00 in0.0 mm 0.00 in0.0 mm 0.00 in0.0 mm
04:37 PM 87.1°F30.6°C 46.1°F7.8°C 24% 3.1 mph NE5.0 kmh NE 6.2 mph10.0 kmh 30.39 in1029.1 mb 0.00 in0.0 mm 0.00 in0.0 mm 0.00 in0.0 mm
04:42 PM 86.4°F30.2°C 46.7°F8.2°C 25% 2.3 mph E3.7 kmh E 6.2 mph10.0 kmh 30.39 in1029.1 mb 0.00 in0.0 mm 0.00 in0.0 mm 0.00 in0.0 mm
04:47 PM 86.4°F30.2°C 46.7°F8.2°C 25% 2.7 mph SSE4.3 kmh SSE 4.4 mph7.1 kmh 30.39 in1029.1 mb 0.00 in0.0 mm 0.00 in0.0 mm 0.00 in0.0 mm
04:52 PM 85.1°F29.5°C 45.6°F7.6°C 25% 2.8 mph S4.5 kmh S 5.4 mph8.7 kmh 30.39 in1029.1 mb 0.00 in0.0 mm 0.00 in0.0 mm 0.00 in0.0 mm
04:57 PM 84.7°F29.3°C 45.2°F7.3°C 25% 2.6 mph SSE4.2 kmh SSE 5.4 mph8.7 kmh 30.39 in1029.1 mb 0.00 in0.0 mm 0.00 in0.0 mm 0.00 in0.0 mm
05:02 PM 83.3°F28.5°C 45.1°F7.3°C 26% 2.4 mph S3.9 kmh S 4.0 mph6.4 kmh 30.39 in1029.1 mb 0.00 in0.0 mm 0.00 in0.0 mm 0.00 in0.0 mm
05:07 PM 83.1°F28.4°C 45.0°F7.2°C 26% 2.3 mph ESE3.7 kmh ESE 4.0 mph6.4 kmh 30.39 in1029.1 mb 0.00 in0.0 mm 0.00 in0.0 mm 0.00 in0.0 mm
05:12 PM 82.4°F28.0°C 45.4°F7.4°C 28% 2.6 mph SSW4.2 kmh SSW 3.2 mph5.1 kmh 30.39 in1029.1 mb 0.00 in0.0 mm 0.00 in0.0 mm 0.00 in0.0 mm
05:17 PM 81.7°F27.6°C 44.8°F7.1°C 28% 1.8 mph E2.9 kmh E 3.2 mph5.1 kmh 30.39 in1029.1 mb 0.00 in0.0 mm 0.00 in0.0 mm 0.00 in0.0 mm
05:22 PM 81.1°F27.3°C 45.3°F7.4°C 29% 3.5 mph SSE5.6 kmh SSE 6.8 mph10.9 kmh 30.39 in1029.1 mb 0.00 in0.0 mm 0.00 in0.0 mm 0.00 in0.0 mm
05:27 PM 81.0°F27.2°C 45.2°F7.3°C 29% 4.5 mph SE7.2 kmh SE 6.8 mph10.9 kmh 30.39 in1029.1 mb 0.00 in0.0 mm 0.00 in0.0 mm 0.00 in0.0 mm
05:32 PM 80.8°F27.1°C 45.1°F7.3°C 29% 4.3 mph ESE6.9 kmh ESE 5.8 mph9.3 kmh 30.39 in1029.1 mb 0.00 in0.0 mm 0.00 in0.0 mm 0.00 in0.0 mm
05:38 PM 80.2°F26.8°C 45.5°F7.5°C 30% 2.1 mph SE3.4 kmh SE 6.2 mph10.0 kmh 30.39 in1029.1 mb 0.00 in0.0 mm 0.00 in0.0 mm 0.00 in0.0 mm
05:43 PM 80.1°F26.7°C 45.5°F7.5°C 30% 4.0 mph E6.4 kmh E 6.2 mph10.0 kmh 30.39 in1029.1 mb 0.00 in0.0 mm 0.00 in0.0 mm 0.00 in0.0 mm
05:48 PM 79.7°F26.5°C 45.1°F7.3°C 30% 2.5 mph WSW4.0 kmh WSW 5.0 mph8.0 kmh 30.39 in1029.1 mb 0.00 in0.0 mm 0.00 in0.0 mm 0.00 in0.0 mm
05:53 PM 79.3°F26.3°C 45.7°F7.6°C 31% 2.1 mph S3.4 kmh S 5.0 mph8.0 kmh 30.39 in1029.1 mb 0.00 in0.0 mm 0.00 in0.0 mm 0.00 in0.0 mm
05:58 PM 79.2°F26.2°C 46.6°F8.1°C 32% 3.9 mph SSE6.3 kmh SSE 6.2 mph10.0 kmh 30.39 in1029.1 mb 0.00 in0.0 mm 0.00 in0.0 mm 0.00 in0.0 mm
06:03 PM 79.2°F26.2°C 47.5°F8.6°C 33% 2.4 mph SE3.9 kmh SE 6.2 mph10.0 kmh 30.39 in1029.1 mb 0.00 in0.0 mm 0.00 in0.0 mm 0.00 in0.0 mm
06:09 PM 78.6°F25.9°C 46.9°F8.3°C 33% 2.5 mph S4.0 kmh S 4.0 mph6.4 kmh 30.36 in1028.1 mb 0.00 in0.0 mm 0.00 in0.0 mm 0.00 in0.0 mm
06:13 PM 78.6°F25.9°C 46.9°F8.3°C 33% 2.3 mph SW3.7 kmh SW 4.0 mph6.4 kmh 30.36 in1028.1 mb 0.00 in0.0 mm 0.00 in0.0 mm 0.00 in0.0 mm
06:18 PM 78.6°F25.9°C 46.9°F8.3°C 33% Calm Calm 3.2 mph5.1 kmh 30.36 in1028.1 mb 0.00 in0.0 mm 0.00 in0.0 mm 0.00 in0.0 mm
06:24 PM 78.3°F25.7°C 46.7°F8.2°C 33% Calm Calm 2.6 mph4.2 kmh 30.36 in1028.1 mb 0.00 in0.0 mm 0.00 in0.0 mm 0.00 in0.0 mm
06:29 PM 78.3°F25.7°C 46.7°F8.2°C 33% 1.8 mph ESE2.9 kmh ESE 1.8 mph2.9 kmh 30.36 in1028.1 mb 0.00 in0.0 mm 0.00 in0.0 mm 0.00 in0.0 mm
06:34 PM 78.1°F25.6°C 46.5°F8.1°C 33% 1.8 mph NNW2.9 kmh NNW 2.6 mph4.2 kmh 30.36 in1028.1 mb 0.00 in0.0 mm 0.00 in0.0 mm 0.00 in0.0 mm
06:39 PM 77.9°F25.5°C 47.2°F8.4°C 34% 2.3 mph SSW3.7 kmh SSW 4.0 mph6.4 kmh 30.39 in1029.1 mb 0.00 in0.0 mm 0.00 in0.0 mm 0.00 in0.0 mm
06:44 PM 77.5°F25.3°C 46.8°F8.2°C 34% 2.6 mph WSW4.2 kmh WSW 4.0 mph6.4 kmh 30.39 in1029.1 mb 0.00 in0.0 mm 0.00 in0.0 mm 0.00 in0.0 mm
06:50 PM 77.4°F25.2°C 46.8°F8.2°C 34% Calm Calm 3.2 mph5.1 kmh 30.36 in1028.1 mb 0.00 in0.0 mm 0.00 in0.0 mm 0.00 in0.0 mm
06:55 PM 77.4°F25.2°C 46.8°F8.2°C 34% Calm Calm 1.8 mph2.9 kmh 30.36 in1028.1 mb 0.00 in0.0 mm 0.00 in0.0 mm 0.00 in0.0 mm
07:00 PM 77.0°F25.0°C 46.4°F8.0°C 34% Calm Calm 1.8 mph2.9 kmh 30.36 in1028.1 mb 0.00 in0.0 mm 0.00 in0.0 mm 0.00 in0.0 mm
07:05 PM 76.6°F24.8°C 46.0°F7.8°C 34% 2.1 mph SSE3.4 kmh SSE 3.2 mph5.1 kmh 30.36 in1028.1 mb 0.00 in0.0 mm 0.00 in0.0 mm 0.00 in0.0 mm
07:11 PM 76.3°F24.6°C 46.6°F8.1°C 35% 1.8 mph SSE2.9 kmh SSE 3.2 mph5.1 kmh 30.36 in1028.1 mb 0.00 in0.0 mm 0.00 in0.0 mm 0.00 in0.0 mm
07:16 PM 75.9°F24.4°C 46.3°F7.9°C 35% Calm Calm 2.2 mph3.5 kmh 30.36 in1028.1 mb 0.00 in0.0 mm 0.00 in0.0 mm 0.00 in0.0 mm
07:21 PM 75.7°F24.3°C 46.1°F7.8°C 35% 2.2 mph ESE3.5 kmh ESE 3.2 mph5.1 kmh 30.36 in1028.1 mb 0.00 in0.0 mm 0.00 in0.0 mm 0.00 in0.0 mm
07:26 PM 75.6°F24.2°C 46.0°F7.8°C 35% Calm Calm 3.2 mph5.1 kmh 30.36 in1028.1 mb 0.00 in0.0 mm 0.00 in0.0 mm 0.00 in0.0 mm
07:31 PM 75.2°F24.0°C 45.7°F7.6°C 35% 2.2 mph ESE3.5 kmh ESE 2.2 mph3.5 kmh 30.36 in1028.1 mb 0.00 in0.0 mm 0.00 in0.0 mm 0.00 in0.0 mm
07:36 PM 74.8°F23.8°C 46.1°F7.8°C 36% Calm Calm 2.2 mph3.5 kmh 30.36 in1028.1 mb 0.00 in0.0 mm 0.00 in0.0 mm 0.00 in0.0 mm
07:41 PM 74.5°F23.6°C 45.9°F7.7°C 36% Calm Calm 2.2 mph3.5 kmh 30.36 in1028.1 mb 0.00 in0.0 mm 0.00 in0.0 mm 0.00 in0.0 mm
07:46 PM 74.1°F23.4°C 45.5°F7.5°C 36% Calm Calm -- 30.36 in1028.1 mb 0.00 in0.0 mm 0.00 in0.0 mm 0.00 in0.0 mm
07:51 PM 73.8°F23.2°C 45.2°F7.3°C 36% Calm Calm -- 30.36 in1028.1 mb 0.00 in0.0 mm 0.00 in0.0 mm 0.00 in0.0 mm
07:56 PM 73.4°F23.0°C 45.7°F7.6°C 37% Calm Calm -- 30.36 in1028.1 mb 0.00 in0.0 mm 0.00 in0.0 mm 0.00 in0.0 mm
08:01 PM 73.0°F22.8°C 45.3°F7.4°C 37% Calm Calm -- 30.36 in1028.1 mb 0.00 in0.0 mm 0.00 in0.0 mm 0.00 in0.0 mm
08:06 PM 72.7°F22.6°C 45.8°F7.7°C 39% Calm Calm -- 30.36 in1028.1 mb 0.00 in0.0 mm 0.00 in0.0 mm 0.00 in0.0 mm
08:13 PM 72.0°F22.2°C 45.2°F7.3°C 39% Calm Calm -- 30.36 in1028.1 mb 0.00 in0.0 mm 0.00 in0.0 mm 0.00 in0.0 mm
08:18 PM 71.4°F21.9°C 45.4°F7.4°C 40% Calm Calm -- 30.36 in1028.1 mb 0.00 in0.0 mm 0.00 in0.0 mm 0.00 in0.0 mm
08:23 PM 70.9°F21.6°C 45.7°F7.6°C 41% Calm Calm -- 30.36 in1028.1 mb 0.00 in0.0 mm 0.00 in0.0 mm 0.00 in0.0 mm
08:29 PM 70.5°F21.4°C 46.1°F7.8°C 42% Calm Calm -- 30.36 in1028.1 mb 0.00 in0.0 mm 0.00 in0.0 mm 0.00 in0.0 mm
08:34 PM 69.6°F20.9°C 46.7°F8.2°C 44% Calm Calm -- 30.36 in1028.1 mb 0.00 in0.0 mm 0.00 in0.0 mm 0.00 in0.0 mm
08:39 PM 69.3°F20.7°C 46.4°F8.0°C 44% Calm Calm -- 30.36 in1028.1 mb 0.00 in0.0 mm 0.00 in0.0 mm 0.00 in0.0 mm
08:45 PM 68.9°F20.5°C 46.7°F8.2°C 45% Calm Calm -- 30.36 in1028.1 mb 0.00 in0.0 mm 0.00 in0.0 mm 0.00 in0.0 mm
08:50 PM 68.4°F20.2°C 46.9°F8.3°C 46% Calm Calm -- 30.36 in1028.1 mb 0.00 in0.0 mm 0.00 in0.0 mm 0.00 in0.0 mm
08:56 PM 68.0°F20.0°C 46.5°F8.1°C 46% Calm Calm -- 30.36 in1028.1 mb 0.00 in0.0 mm 0.00 in0.0 mm 0.00 in0.0 mm
09:01 PM 67.6°F19.8°C 46.8°F8.2°C 47% Calm Calm -- 30.36 in1028.1 mb 0.00 in0.0 mm 0.00 in0.0 mm 0.00 in0.0 mm
09:07 PM 67.1°F19.5°C 46.4°F8.0°C 47% Calm Calm -- 30.33 in1027.1 mb 0.00 in0.0 mm 0.00 in0.0 mm 0.00 in0.0 mm
09:12 PM 66.9°F19.4°C 46.8°F8.2°C 48% Calm Calm -- 30.33 in1027.1 mb 0.00 in0.0 mm 0.00 in0.0 mm 0.00 in0.0 mm
09:17 PM 66.6°F19.2°C 46.5°F8.1°C 48% Calm Calm -- 30.33 in1027.1 mb 0.00 in0.0 mm 0.00 in0.0 mm 0.00 in0.0 mm
09:22 PM 66.2°F19.0°C 46.2°F7.9°C 48% Calm Calm -- 30.33 in1027.1 mb 0.00 in0.0 mm 0.00 in0.0 mm 0.00 in0.0 mm
09:28 PM 65.8°F18.8°C 46.4°F8.0°C 50% Calm Calm -- 30.33 in1027.1 mb 0.00 in0.0 mm 0.00 in0.0 mm 0.00 in0.0 mm
09:33 PM 65.5°F18.6°C 46.7°F8.2°C 51% Calm Calm -- 30.33 in1027.1 mb 0.00 in0.0 mm 0.00 in0.0 mm 0.00 in0.0 mm
09:38 PM 65.1°F18.4°C 46.9°F8.3°C 52% Calm Calm -- 30.39 in1029.1 mb 0.00 in0.0 mm 0.00 in0.0 mm 0.00 in0.0 mm
09:43 PM 64.6°F18.1°C 47.1°F8.4°C 53% Calm Calm -- 30.39 in1029.1 mb 0.00 in0.0 mm 0.00 in0.0 mm 0.00 in0.0 mm
09:48 PM 64.2°F17.9°C 47.2°F8.4°C 54% Calm Calm -- 30.39 in1029.1 mb 0.00 in0.0 mm 0.00 in0.0 mm 0.00 in0.0 mm
09:53 PM 63.9°F17.7°C 47.5°F8.6°C 55% Calm Calm -- 30.39 in1029.1 mb 0.00 in0.0 mm 0.00 in0.0 mm 0.00 in0.0 mm
09:58 PM 63.7°F17.6°C 47.3°F8.5°C 55% Calm Calm -- 30.39 in1029.1 mb 0.00 in0.0 mm 0.00 in0.0 mm 0.00 in0.0 mm
10:03 PM 63.1°F17.3°C 47.3°F8.5°C 56% Calm Calm -- 30.39 in1029.1 mb 0.00 in0.0 mm 0.00 in0.0 mm 0.00 in0.0 mm
10:08 PM 63.0°F17.2°C 48.3°F9.1°C 58% Calm Calm -- 30.36 in1028.1 mb 0.00 in0.0 mm 0.00 in0.0 mm 0.00 in0.0 mm
10:14 PM 62.6°F17.0°C 47.9°F8.8°C 58% Calm Calm -- 30.36 in1028.1 mb 0.00 in0.0 mm 0.00 in0.0 mm 0.00 in0.0 mm
10:20 PM 62.2°F16.8°C 48.0°F8.9°C 59% Calm Calm -- 30.36 in1028.1 mb 0.00 in0.0 mm 0.00 in0.0 mm 0.00 in0.0 mm
10:25 PM 62.1°F16.7°C 48.4°F9.1°C 61% 2.7 mph ESE4.3 kmh ESE 3.2 mph5.1 kmh 30.36 in1028.1 mb 0.00 in0.0 mm 0.00 in0.0 mm 0.00 in0.0 mm
10:31 PM 61.5°F16.4°C 47.8°F8.8°C 61% Calm Calm 3.2 mph5.1 kmh 30.36 in1028.1 mb 0.00 in0.0 mm 0.00 in0.0 mm 0.00 in0.0 mm
10:36 PM 61.5°F16.4°C 48.3°F9.1°C 62% Calm Calm -- 30.33 in1027.1 mb 0.00 in0.0 mm 0.00 in0.0 mm 0.00 in0.0 mm
10:41 PM 61.3°F16.3°C 48.6°F9.2°C 63% Calm Calm -- 30.33 in1027.1 mb 0.00 in0.0 mm 0.00 in0.0 mm 0.00 in0.0 mm
10:46 PM 61.2°F16.2°C 49.0°F9.4°C 64% Calm Calm -- 30.33 in1027.1 mb 0.00 in0.0 mm 0.00 in0.0 mm 0.00 in0.0 mm
10:51 PM 61.0°F16.1°C 48.8°F9.3°C 64% Calm Calm -- 30.36 in1028.1 mb 0.00 in0.0 mm 0.00 in0.0 mm 0.00 in0.0 mm
10:56 PM 60.8°F16.0°C 48.6°F9.2°C 64% Calm Calm -- 30.36 in1028.1 mb 0.00 in0.0 mm 0.00 in0.0 mm 0.00 in0.0 mm
11:01 PM 60.6°F15.9°C 49.3°F9.6°C 66% Calm Calm -- 30.36 in1028.1 mb 0.00 in0.0 mm 0.00 in0.0 mm 0.00 in0.0 mm
11:06 PM 60.6°F15.9°C 49.8°F9.9°C 67% Calm Calm -- 30.36 in1028.1 mb 0.00 in0.0 mm 0.00 in0.0 mm 0.00 in0.0 mm
11:11 PM 60.4°F15.8°C 49.6°F9.8°C 67% Calm Calm -- 30.36 in1028.1 mb 0.00 in0.0 mm 0.00 in0.0 mm 0.00 in0.0 mm
11:16 PM 60.4°F15.8°C 49.6°F9.8°C 67% Calm Calm -- 30.36 in1028.1 mb 0.00 in0.0 mm 0.00 in0.0 mm 0.00 in0.0 mm
11:21 PM 60.4°F15.8°C 50.4°F10.2°C 69% Calm Calm -- 30.36 in1028.1 mb 0.00 in0.0 mm 0.00 in0.0 mm 0.00 in0.0 mm
11:26 PM 60.4°F15.8°C 50.9°F10.5°C 70% Calm Calm -- 30.36 in1028.1 mb 0.00 in0.0 mm 0.00 in0.0 mm 0.00 in0.0 mm
11:31 PM 60.3°F15.7°C 50.3°F10.2°C 69% Calm Calm -- 30.36 in1028.1 mb 0.00 in0.0 mm 0.00 in0.0 mm 0.00 in0.0 mm
11:36 PM 60.3°F15.7°C 50.8°F10.4°C 70% Calm Calm -- 30.36 in1028.1 mb 0.00 in0.0 mm 0.00 in0.0 mm 0.00 in0.0 mm
11:42 PM 60.1°F15.6°C 50.6°F10.3°C 70% Calm Calm -- 30.36 in1028.1 mb 0.00 in0.0 mm 0.00 in0.0 mm 0.00 in0.0 mm
11:47 PM 60.1°F15.6°C 51.0°F10.6°C 72% Calm Calm -- 30.36 in1028.1 mb 0.00 in0.0 mm 0.00 in0.0 mm 0.00 in0.0 mm
11:52 PM 59.9°F15.5°C 50.8°F10.4°C 72% Calm Calm -- 30.33 in1027.1 mb 0.00 in0.0 mm 0.00 in0.0 mm 0.00 in0.0 mm
11:57 PM 59.7°F15.4°C 50.6°F10.3°C 72% Calm Calm -- 30.33 in1027.1 mb 0.00 in0.0 mm 0.00 in0.0 mm 0.00 in0.0 mm